Time;durP1;ratioP1;P1;durP2;ratioP2;P2;SDS_P1;SDS_P2;PMS_P1;PMS_P2;Temp;Humidity;BMP_temperature;BMP_pressure;BME280_temperature;BME280_humidity;BME280_pressure;Samples;Min_cycle;Max_cycle;Signal;HPM_P1;HPM_P2
2022/01/07 00:02:20;;;;;;;;;;;;;;;;;;5132683;28;990;-69
2022/01/07 00:04:45;;;;;;;;;;;;;;;;;;5132738;28;837;-70
2022/01/07 00:07:11;;;;;;;;;;;;;;;;;;5133070;28;863;-70
2022/01/07 00:09:36;;;;;;;;;;;;;;;;;;5132201;28;1027;-70
2022/01/07 00:12:03;;;;;;;;;;;;;;;;;;5133115;28;891;-69
2022/01/07 00:14:28;;;;;;;;;;;;;;;;;;5132519;28;891;-70
2022/01/07 00:16:53;;;;;;;;;;;;;;;;;;5096804;28;1903;-69
2022/01/07 00:19:19;;;;;;;;;;;;;;;;;;5114575;28;872;-69
2022/01/07 00:21:44;;;;;;;;;;;;;;;;;;5114140;28;1290;-70
2022/01/07 00:24:10;;;;;;;;;;;;;;;;;;5133686;27;871;-70
2022/01/07 00:26:35;;;;;;;;;;;;;;;;;;5136321;27;876;-70
2022/01/07 00:29:00;;;;;;;;;;;;;;;;;;5136233;27;847;-70
2022/01/07 00:31:26;;;;;;;;;;;;;;;;;;5117477;27;1213;-70
2022/01/07 00:33:51;;;;;;;;;;;;;;;;;;5136742;27;875;-70
2022/01/07 00:36:16;;;;;;;;;;;;;;;;;;5136486;27;809;-69
2022/01/07 00:38:41;;;;;;;;;;;;;;;;;;5135350;27;1905;-64
2022/01/07 00:41:07;;;;;;;;;;;;;;;;;;5135463;27;895;-64
2022/01/07 00:43:32;;;;;;;;;;;;;;;;;;5134977;27;927;-64
2022/01/07 00:45:57;;;;;;;;;;;;;;;;;;5135363;27;816;-64
2022/01/07 00:48:23;;;;;;;;;;;;;;;;;;5135292;27;877;-64
2022/01/07 00:50:49;;;;;;;;;;;;;;;;;;5117394;27;800;-64
2022/01/07 00:53:14;;;;;;;;;;;;;;;;;;5135132;27;825;-64
2022/01/07 00:55:39;;;;;;;;;;;;;;;;;;5134587;27;900;-64
2022/01/07 00:58:05;;;;;;;;;;;;;;;;;;5135751;27;1909;-64
2022/01/07 01:00:30;;;;;;;;;;;;;;;;;;5135256;27;828;-64
2022/01/07 01:02:56;;;;;;;;;;;;;;;;;;5135261;27;912;-64
2022/01/07 01:05:21;;;;;;;;;;;;;;;;;;5135957;27;801;-64
2022/01/07 01:07:47;;;;;;;;;;;;;;;;;;5134807;27;2644;-64
2022/01/07 01:10:13;;;;;;;;;;;;;;;;;;5155893;27;1226;-64
2022/01/07 01:12:39;;;;;;;;;;;;;;;;;;5155305;27;914;-64
2022/01/07 01:15:06;;;;;;;;;;;;;;;;;;5155208;27;3247;-64
2022/01/07 01:17:31;;;;;;;;;;;;;;;;;;5155240;27;1897;-63
2022/01/07 01:19:56;;;;;;;;;;;;;;;;;;5155899;27;910;-63
2022/01/07 01:22:22;;;;;;;;;;;;;;;;;;5137485;27;1201;-62
2022/01/07 01:24:47;;;;;;;;;;;;;;;;;;5156421;27;752;-62
2022/01/07 01:27:12;;;;;;;;;;;;;;;;;;5155941;27;863;-62
2022/01/07 01:29:38;;;;;;;;;;;;;;;;;;5155532;27;1010;-62
2022/01/07 01:32:03;;;;;;;;;;;;;;;;;;5155756;27;856;-63
2022/01/07 01:34:29;;;;;;;;;;;;;;;;;;5154859;27;894;-63
2022/01/07 01:36:54;;;;;;;;;;;;;;;;;;5156113;27;1906;-62
2022/01/07 01:39:19;;;;;;;;;;;;;;;;;;5136809;27;1064;-63
2022/01/07 01:41:45;;;;;;;;;;;;;;;;;;5155003;27;891;-62
2022/01/07 01:44:10;;;;;;;;;;;;;;;;;;5136972;27;1227;-63
2022/01/07 01:46:35;;;;;;;;;;;;;;;;;;5155106;27;875;-63
2022/01/07 01:49:01;;;;;;;;;;;;;;;;;;5155338;27;872;-62
2022/01/07 01:51:26;;;;;;;;;;;;;;;;;;5155308;27;911;-63
2022/01/07 01:53:51;;;;;;;;;;;;;;;;;;5155421;27;887;-63
2022/01/07 01:56:16;;;;;;;;;;;;;;;;;;5155444;27;856;-62
2022/01/07 01:58:42;;;;;;;;;;;;;;;;;;5154301;27;1905;-64
2022/01/07 02:01:07;;;;;;;;;;;;;;;;;;5154775;27;907;-63
2022/01/07 02:03:33;;;;;;;;;;;;;;;;;;5154409;27;978;-63
2022/01/07 02:05:58;;;;;;;;;;;;;;;;;;5154761;27;867;-63
2022/01/07 02:08:23;;;;;;;;;;;;;;;;;;5154833;27;930;-63
2022/01/07 02:10:49;;;;;;;;;;;;;;;;;;5136072;27;888;-62
2022/01/07 02:13:15;;;;;;;;;;;;;;;;;;5135934;27;1278;-63
2022/01/07 02:15:41;;;;;;;;;;;;;;;;;;5135372;27;1025;-62
2022/01/07 02:18:07;;;;;;;;;;;;;;;;;;5154203;27;1971;-63
2022/01/07 02:20:32;;;;;;;;;;;;;;;;;;5154012;27;914;-63
2022/01/07 02:22:58;;;;;;;;;;;;;;;;;;5154369;27;967;-62
2022/01/07 02:25:24;;;;;;;;;;;;;;;;;;5154362;27;1041;-62
2022/01/07 02:27:50;;;;;;;;;;;;;;;;;;5135556;27;1221;-63
2022/01/07 02:30:23;;;;;;;;;;;;;;;;;;5154293;27;879;-63
2022/01/07 02:32:49;;;;;;;;;;;;;;;;;;5154198;27;1900;-62
2022/01/07 02:35:16;;;;;;;;;;;;;;;;;;5154213;27;835;-62
2022/01/07 02:37:41;;;;;;;;;;;;;;;;;;5153293;27;1905;-63
2022/01/07 02:40:07;;;;;;;;;;;;;;;;;;5154332;27;879;-63
2022/01/07 02:42:32;;;;;;;;;;;;;;;;;;5153777;27;998;-63
2022/01/07 02:44:58;;;;;;;;;;;;;;;;;;5154149;27;813;-63
2022/01/07 02:47:27;;;;;;;;;;;;;;;;;;5153624;27;816;-63
2022/01/07 02:49:52;;;;;;;;;;;;;;;;;;5153414;27;1015;-63
2022/01/07 02:52:17;;;;;;;;;;;;;;;;;;5154277;27;840;-62
2022/01/07 02:54:43;;;;;;;;;;;;;;;;;;5135101;27;1048;-62
2022/01/07 02:57:08;;;;;;;;;;;;;;;;;;5136097;27;2703;-62
2022/01/07 02:59:33;;;;;;;;;;;;;;;;;;5133083;27;959;-63
2022/01/07 03:01:59;;;;;;;;;;;;;;;;;;5115296;27;896;-64
2022/01/07 03:04:26;;;;;;;;;;;;;;;;;;5114820;27;989;-63
2022/01/07 03:06:52;;;;;;;;;;;;;;;;;;5133468;27;884;-63
2022/01/07 03:09:17;;;;;;;;;;;;;;;;;;5133095;27;1076;-62
2022/01/07 03:11:43;;;;;;;;;;;;;;;;;;5133238;27;918;-62
2022/01/07 03:14:08;;;;;;;;;;;;;;;;;;5133506;27;872;-63
2022/01/07 03:16:33;;;;;;;;;;;;;;;;;;5132745;27;967;-63
2022/01/07 03:18:58;;;;;;;;;;;;;;;;;;5113790;27;1901;-63
2022/01/07 03:21:24;;;;;;;;;;;;;;;;;;5114157;27;1325;-63
2022/01/07 03:23:49;;;;;;;;;;;;;;;;;;5132894;27;821;-63
2022/01/07 03:26:14;;;;;;;;;;;;;;;;;;5113848;27;943;-63
2022/01/07 03:28:40;;;;;;;;;;;;;;;;;;5132100;27;1041;-63
2022/01/07 03:31:05;;;;;;;;;;;;;;;;;;5133507;27;832;-62
2022/01/07 03:33:30;;;;;;;;;;;;;;;;;;5132439;27;817;-63
2022/01/07 03:35:56;;;;;;;;;;;;;;;;;;5132818;27;915;-62
2022/01/07 03:38:21;;;;;;;;;;;;;;;;;;5132869;28;1963;-63
2022/01/07 03:40:47;;;;;;;;;;;;;;;;;;5132306;28;1030;-63
2022/01/07 03:43:13;;;;;;;;;;;;;;;;;;5132426;28;986;-63
2022/01/07 03:45:38;;;;;;;;;;;;;;;;;;5131817;28;998;-64
2022/01/07 03:48:04;;;;;;;;;;;;;;;;;;5132659;28;800;-63
2022/01/07 03:50:30;;;;;;;;;;;;;;;;;;5132178;28;1084;-63
2022/01/07 03:52:56;;;;;;;;;;;;;;;;;;5141131;27;2814;-63
2022/01/07 03:55:25;;;;;;;;;;;;;;;;;;5133403;27;3341;-64
2022/01/07 03:57:51;;;;;;;;;;;;;;;;;;5132385;27;1906;-63
2022/01/07 04:00:18;;;;;;;;;;;;;;;;;;5135636;27;773;-63
2022/01/07 04:02:43;;;;;;;;;;;;;;;;;;5136312;27;883;-63
2022/01/07 04:05:09;;;;;;;;;;;;;;;;;;5136891;27;844;-63
2022/01/07 04:07:35;;;;;;;;;;;;;;;;;;5135878;27;975;-63
2022/01/07 04:10:01;;;;;;;;;;;;;;;;;;5135949;27;920;-63
2022/01/07 04:12:26;;;;;;;;;;;;;;;;;;5135877;27;1029;-63
2022/01/07 04:15:02;;;;;;;;;;;;;;;;;;5136417;27;935;-63
2022/01/07 04:17:27;;;;;;;;;;;;;;;;;;5117629;27;1963;-63
2022/01/07 04:19:53;;;;;;;;;;;;;;;;;;5135834;27;820;-63
2022/01/07 04:22:19;;;;;;;;;;;;;;;;;;5117264;27;1412;-63
2022/01/07 04:24:44;;;;;;;;;;;;;;;;;;5135286;27;840;-63
2022/01/07 04:27:09;;;;;;;;;;;;;;;;;;5135691;27;951;-63
2022/01/07 04:29:34;;;;;;;;;;;;;;;;;;5117063;27;1329;-64
2022/01/07 04:32:01;;;;;;;;;;;;;;;;;;5136243;27;880;-63
2022/01/07 04:34:27;;;;;;;;;;;;;;;;;;5136041;27;817;-63
2022/01/07 04:36:52;;;;;;;;;;;;;;;;;;5117116;27;1226;-63
2022/01/07 04:39:17;;;;;;;;;;;;;;;;;;5135776;27;1902;-63
2022/01/07 04:41:42;;;;;;;;;;;;;;;;;;5135606;27;970;-63
2022/01/07 04:44:08;;;;;;;;;;;;;;;;;;5135850;27;825;-63
2022/01/07 04:46:33;;;;;;;;;;;;;;;;;;5117451;27;951;-64
2022/01/07 04:48:58;;;;;;;;;;;;;;;;;;5135593;27;1046;-63
2022/01/07 04:51:23;;;;;;;;;;;;;;;;;;5135885;27;864;-63
2022/01/07 04:53:49;;;;;;;;;;;;;;;;;;5135253;27;879;-64
2022/01/07 04:56:14;;;;;;;;;;;;;;;;;;5116931;27;887;-63
2022/01/07 04:58:39;;;;;;;;;;;;;;;;;;5135297;27;1909;-63
2022/01/07 05:01:04;;;;;;;;;;;;;;;;;;5135362;27;883;-63
2022/01/07 05:03:30;;;;;;;;;;;;;;;;;;5116634;27;824;-63
2022/01/07 05:06:10;;;;;;;;;;;;;;;;;;5099336;27;829;-63
2022/01/07 05:08:36;;;;;;;;;;;;;;;;;;5134881;27;899;-63
2022/01/07 05:11:01;;;;;;;;;;;;;;;;;;5115878;27;907;-63
2022/01/07 05:13:27;;;;;;;;;;;;;;;;;;5134915;27;855;-63
2022/01/07 05:15:52;;;;;;;;;;;;;;;;;;5135190;27;826;-63
2022/01/07 05:18:17;;;;;;;;;;;;;;;;;;5134804;27;1959;-63
2022/01/07 05:20:43;;;;;;;;;;;;;;;;;;5134450;27;1053;-64
2022/01/07 05:23:08;;;;;;;;;;;;;;;;;;5134445;27;797;-64
2022/01/07 05:25:34;;;;;;;;;;;;;;;;;;5116497;27;1155;-63
2022/01/07 05:27:59;;;;;;;;;;;;;;;;;;5135101;27;829;-64
2022/01/07 05:30:24;;;;;;;;;;;;;;;;;;5099713;27;1280;-64
2022/01/07 05:32:50;;;;;;;;;;;;;;;;;;5116258;27;1149;-63
2022/01/07 05:35:15;;;;;;;;;;;;;;;;;;5134891;27;907;-64
2022/01/07 05:37:40;;;;;;;;;;;;;;;;;;5134177;27;1893;-64
2022/01/07 05:40:06;;;;;;;;;;;;;;;;;;5134047;27;1313;-64
2022/01/07 05:42:31;;;;;;;;;;;;;;;;;;5134510;27;3529;-64
2022/01/07 05:44:57;;;;;;;;;;;;;;;;;;5115836;27;1337;-64
2022/01/07 05:47:22;;;;;;;;;;;;;;;;;;5134578;27;816;-63
2022/01/07 05:49:47;;;;;;;;;;;;;;;;;;5134259;27;909;-63
2022/01/07 05:52:13;;;;;;;;;;;;;;;;;;5115366;27;2739;-63
2022/01/07 05:54:38;;;;;;;;;;;;;;;;;;5147152;27;1115;-64
2022/01/07 05:57:05;;;;;;;;;;;;;;;;;;5154708;27;1972;-64
2022/01/07 05:59:30;;;;;;;;;;;;;;;;;;5136516;27;844;-64
2022/01/07 06:01:55;;;;;;;;;;;;;;;;;;5154290;27;915;-63
2022/01/07 06:04:21;;;;;;;;;;;;;;;;;;5135969;27;891;-64
2022/01/07 06:06:46;;;;;;;;;;;;;;;;;;5154590;27;1042;-64
2022/01/07 06:09:11;;;;;;;;;;;;;;;;;;5154176;27;824;-63
2022/01/07 06:11:36;;;;;;;;;;;;;;;;;;5154158;27;919;-64
2022/01/07 06:14:02;;;;;;;;;;;;;;;;;;5154505;27;766;-64
2022/01/07 06:16:27;;;;;;;;;;;;;;;;;;5154383;27;805;-64
2022/01/07 06:18:58;;;;;;;;;;;;;;;;;;5136044;27;1898;-64
2022/01/07 06:21:24;;;;;;;;;;;;;;;;;;5153713;27;975;-63
2022/01/07 06:23:50;;;;;;;;;;;;;;;;;;5154393;27;1101;-63
2022/01/07 06:26:15;;;;;;;;;;;;;;;;;;5154223;27;840;-63
2022/01/07 06:28:41;;;;;;;;;;;;;;;;;;5154318;27;903;-64
2022/01/07 06:31:06;;;;;;;;;;;;;;;;;;5135186;27;1202;-64
2022/01/07 06:33:31;;;;;;;;;;;;;;;;;;5135300;27;1226;-63
2022/01/07 06:35:56;;;;;;;;;;;;;;;;;;5135258;27;1179;-64
2022/01/07 06:38:22;;;;;;;;;;;;;;;;;;5117738;27;1980;-63
2022/01/07 06:40:47;;;;;;;;;;;;;;;;;;5134861;27;1308;-63
2022/01/07 06:43:12;;;;;;;;;;;;;;;;;;5153717;27;765;-64
2022/01/07 06:45:38;;;;;;;;;;;;;;;;;;5153746;27;950;-64
2022/01/07 06:48:04;;;;;;;;;;;;;;;;;;5153318;27;843;-64
2022/01/07 06:50:29;;;;;;;;;;;;;;;;;;5153634;27;890;-64
2022/01/07 06:52:54;;;;;;;;;;;;;;;;;;5134308;27;1558;-64
2022/01/07 06:55:21;;;;;;;;;;;;;;;;;;5135177;27;848;-63
2022/01/07 06:57:46;;;;;;;;;;;;;;;;;;5134918;27;1955;-64
2022/01/07 07:00:12;;;;;;;;;;;;;;;;;;5153718;27;851;-64
2022/01/07 07:02:37;;;;;;;;;;;;;;;;;;5153313;27;946;-64
2022/01/07 07:05:02;;;;;;;;;;;;;;;;;;5134702;27;1136;-64
2022/01/07 07:07:28;;;;;;;;;;;;;;;;;;5134851;27;856;-64
2022/01/07 07:09:53;;;;;;;;;;;;;;;;;;5153177;27;824;-63
2022/01/07 07:12:18;;;;;;;;;;;;;;;;;;5134811;27;1457;-63
2022/01/07 07:14:44;;;;;;;;;;;;;;;;;;5153479;27;875;-64
2022/01/07 07:17:11;;;;;;;;;;;;;;;;;;5153375;27;1905;-63
2022/01/07 07:19:37;;;;;;;;;;;;;;;;;;5134890;27;1329;-64
2022/01/07 07:22:02;;;;;;;;;;;;;;;;;;5153107;27;804;-63
2022/01/07 07:24:27;;;;;;;;;;;;;;;;;;5152919;27;835;-63
2022/01/07 07:26:53;;;;;;;;;;;;;;;;;;5153248;27;844;-63
2022/01/07 07:29:18;;;;;;;;;;;;;;;;;;5134565;27;1127;-63
2022/01/07 07:31:48;;;;;;;;;;;;;;;;;;5151319;27;2700;-63
2022/01/07 07:36:45;;;;;;;;;;;;;;;;;;5152800;27;1122;-64
2022/01/07 07:39:12;;;;;;;;;;;;;;;;;;5153120;27;1937;-62
2022/01/07 07:41:38;;;;;;;;;;;;;;;;;;5153219;27;845;-63
2022/01/07 07:44:04;;;;;;;;;;;;;;;;;;5153281;27;903;-62
2022/01/07 07:46:31;;;;;;;;;;;;;;;;;;5134764;27;1300;-63
2022/01/07 07:48:56;;;;;;;;;;;;;;;;;;5153314;27;867;-63
2022/01/07 07:51:22;;;;;;;;;;;;;;;;;;5133089;27;2843;-63
2022/01/07 07:53:48;;;;;;;;;;;;;;;;;;5134486;27;955;-63
2022/01/07 07:56:15;;;;;;;;;;;;;;;;;;5153345;27;875;-63
2022/01/07 07:58:40;;;;;;;;;;;;;;;;;;5152706;27;1929;-64
2022/01/07 08:01:06;;;;;;;;;;;;;;;;;;5153162;27;1179;-64
2022/01/07 08:03:31;;;;;;;;;;;;;;;;;;5133911;27;1297;-63
2022/01/07 08:05:56;;;;;;;;;;;;;;;;;;5134408;27;911;-62
2022/01/07 08:08:22;;;;;;;;;;;;;;;;;;5152859;27;1005;-63
2022/01/07 08:10:54;;;;;;;;;;;;;;;;;;5153052;27;825;-63
2022/01/07 08:13:28;;;;;;;;;;;;;;;;;;5132418;27;1311;-64
2022/01/07 08:16:01;;;;;;;;;;;;;;;;;;5152900;27;801;-63
2022/01/07 08:18:33;;;;;;;;;;;;;;;;;;5152383;27;1902;-63
2022/01/07 08:21:00;;;;;;;;;;;;;;;;;;5133729;27;1233;-63
2022/01/07 08:23:26;;;;;;;;;;;;;;;;;;5152304;27;796;-64
2022/01/07 08:25:51;;;;;;;;;;;;;;;;;;5152363;27;1002;-63
2022/01/07 08:28:17;;;;;;;;;;;;;;;;;;5135247;27;2768;-64
2022/01/07 08:31:24;;;;;;;;;;;;;;;;;;5131481;28;868;-64
2022/01/07 08:36:30;;;;;;;;;;;;;;;;;;5132050;28;730;-63
2022/01/07 08:38:55;;;;;;;;;;;;;;;;;;5131226;28;1897;-63
2022/01/07 08:41:22;;;;;;;;;;;;;;;;;;5131675;28;816;-63
2022/01/07 08:43:48;;;;;;;;;;;;;;;;;;5112881;28;1341;-64
2022/01/07 08:46:13;;;;;;;;;;;;;;;;;;5115760;27;1144;-64
2022/01/07 08:48:38;;;;;;;;;;;;;;;;;;5135174;27;879;-63
2022/01/07 08:51:04;;;;;;;;;;;;;;;;;;5135327;27;884;-63
2022/01/07 08:53:30;;;;;;;;;;;;;;;;;;5135045;27;827;-63
2022/01/07 08:55:55;;;;;;;;;;;;;;;;;;5116528;27;1422;-64
2022/01/07 08:58:20;;;;;;;;;;;;;;;;;;5134968;27;1979;-63
2022/01/07 09:00:46;;;;;;;;;;;;;;;;;;5135097;27;907;-63
2022/01/07 09:03:11;;;;;;;;;;;;;;;;;;5135298;27;969;-63
2022/01/07 09:05:36;;;;;;;;;;;;;;;;;;5135220;27;792;-64
2022/01/07 09:08:02;;;;;;;;;;;;;;;;;;5116430;27;989;-64
2022/01/07 09:10:27;;;;;;;;;;;;;;;;;;5134678;27;1036;-64
2022/01/07 09:12:52;;;;;;;;;;;;;;;;;;5135110;27;820;-64
2022/01/07 09:15:18;;;;;;;;;;;;;;;;;;5135049;27;968;-64
2022/01/07 09:17:43;;;;;;;;;;;;;;;;;;5135125;27;1889;-63
2022/01/07 09:20:09;;;;;;;;;;;;;;;;;;5116735;27;824;-63
2022/01/07 09:22:34;;;;;;;;;;;;;;;;;;5134601;27;1116;-63
2022/01/07 09:25:00;;;;;;;;;;;;;;;;;;5136539;27;2866;-63
2022/01/07 09:27:25;;;;;;;;;;;;;;;;;;5155345;27;1059;-63
2022/01/07 09:29:51;;;;;;;;;;;;;;;;;;5155883;27;758;-63
2022/01/07 09:32:16;;;;;;;;;;;;;;;;;;5154320;27;2764;-64
2022/01/07 09:34:41;;;;;;;;;;;;;;;;;;5155362;27;903;-63
2022/01/07 09:37:07;;;;;;;;;;;;;;;;;;5155743;27;1972;-64
2022/01/07 09:39:33;;;;;;;;;;;;;;;;;;5155197;27;1190;-64
2022/01/07 09:41:59;;;;;;;;;;;;;;;;;;5155152;27;800;-63
2022/01/07 09:44:24;;;;;;;;;;;;;;;;;;5155254;27;934;-63
2022/01/07 09:46:49;;;;;;;;;;;;;;;;;;5155917;27;958;-63
2022/01/07 09:49:15;;;;;;;;;;;;;;;;;;5155399;27;942;-64
2022/01/07 09:51:40;;;;;;;;;;;;;;;;;;5136315;27;1426;-63
2022/01/07 09:54:06;;;;;;;;;;;;;;;;;;5155551;27;804;-62
2022/01/07 09:56:32;;;;;;;;;;;;;;;;;;5154760;27;899;-62
2022/01/07 09:58:57;;;;;;;;;;;;;;;;;;5135826;27;1913;-62
2022/01/07 10:01:25;;;;;;;;;;;;;;;;;;5134815;27;2915;-63
2022/01/07 10:03:50;;;;;;;;;;;;;;;;;;5135650;27;1209;-63
2022/01/07 10:06:23;;;;;;;;;;;;;;;;;;5154556;27;962;-62
2022/01/07 10:09:03;;;;;;;;;;;;;;;;;;5118969;27;1336;-62
2022/01/07 10:11:28;;;;;;;;;;;;;;;;;;5154683;27;895;-62
2022/01/07 10:14:12;;;;;;;;;;;;;;;;;;5154178;27;781;-63
2022/01/07 10:16:48;;;;;;;;;;;;;;;;;;5135631;27;1116;-62
2022/01/07 10:19:32;;;;;;;;;;;;;;;;;;5153924;27;1905;-62
2022/01/07 10:21:59;;;;;;;;;;;;;;;;;;5154196;27;757;-63
2022/01/07 10:24:25;;;;;;;;;;;;;;;;;;5135466;27;1242;-61
2022/01/07 10:27:10;;;;;;;;;;;;;;;;;;5135190;27;840;-62
2022/01/07 10:29:39;;;;;;;;;;;;;;;;;;5153750;27;927;-63
2022/01/07 10:32:28;;;;;;;;;;;;;;;;;;5154258;27;894;-63
2022/01/07 10:35:04;;;;;;;;;;;;;;;;;;5140559;27;1065;-63
2022/01/07 10:37:29;;;;;;;;;;;;;;;;;;5153487;27;1886;-63
2022/01/07 10:39:55;;;;;;;;;;;;;;;;;;5153678;27;1074;-62
2022/01/07 10:42:24;;;;;;;;;;;;;;;;;;5153730;27;997;-63
2022/01/07 10:45:03;;;;;;;;;;;;;;;;;;5154035;27;1094;-63
2022/01/07 10:47:29;;;;;;;;;;;;;;;;;;5153582;27;808;-63
2022/01/07 10:50:13;;;;;;;;;;;;;;;;;;5153869;27;930;-63
2022/01/07 10:52:38;;;;;;;;;;;;;;;;;;5152776;27;1135;-63
2022/01/07 10:55:07;;;;;;;;;;;;;;;;;;5134276;27;1221;-63
2022/01/07 10:57:36;;;;;;;;;;;;;;;;;;5132793;27;1913;-63
2022/01/07 11:00:06;;;;;;;;;;;;;;;;;;5133182;27;848;-64
2022/01/07 11:02:32;;;;;;;;;;;;;;;;;;5132848;27;1010;-63
2022/01/07 11:04:57;;;;;;;;;;;;;;;;;;5114352;27;1337;-63
2022/01/07 11:07:22;;;;;;;;;;;;;;;;;;5114784;27;781;-63
2022/01/07 11:09:47;;;;;;;;;;;;;;;;;;5132644;27;915;-63
2022/01/07 11:12:14;;;;;;;;;;;;;;;;;;5114944;27;1056;-64
2022/01/07 11:14:41;;;;;;;;;;;;;;;;;;5132278;27;809;-64
2022/01/07 11:17:10;;;;;;;;;;;;;;;;;;5114264;27;1186;-64
2022/01/07 11:19:37;;;;;;;;;;;;;;;;;;5132698;27;983;-63
2022/01/07 11:22:03;;;;;;;;;;;;;;;;;;5132782;27;844;-63
2022/01/07 11:24:33;;;;;;;;;;;;;;;;;;5132596;27;983;-64
2022/01/07 11:26:59;;;;;;;;;;;;;;;;;;5132633;27;864;-62
2022/01/07 11:29:24;;;;;;;;;;;;;;;;;;5132478;27;1375;-62
2022/01/07 11:31:52;;;;;;;;;;;;;;;;;;5132718;27;1191;-62
2022/01/07 11:34:18;;;;;;;;;;;;;;;;;;5131893;27;872;-65
2022/01/07 11:36:44;;;;;;;;;;;;;;;;;;5130155;27;1110;-66
2022/01/07 11:39:09;;;;;;;;;;;;;;;;;;5131517;27;1906;-66
2022/01/07 11:41:47;;;;;;;;;;;;;;;;;;5131459;28;1007;-66
2022/01/07 11:44:20;;;;;;;;;;;;;;;;;;5131799;28;891;-66
2022/01/07 11:46:45;;;;;;;;;;;;;;;;;;5131115;28;879;-66
2022/01/07 11:49:31;;;;;;;;;;;;;;;;;;5131593;28;876;-66
2022/01/07 11:51:56;;;;;;;;;;;;;;;;;;5131063;28;1320;-66
2022/01/07 11:54:21;;;;;;;;;;;;;;;;;;5132062;28;1060;-62
2022/01/07 11:56:46;;;;;;;;;;;;;;;;;;5130561;28;840;-62
2022/01/07 11:59:24;;;;;;;;;;;;;;;;;;5113040;28;1972;-62
2022/01/07 12:01:57;;;;;;;;;;;;;;;;;;5131912;28;895;-62
2022/01/07 12:04:27;;;;;;;;;;;;;;;;;;5132232;28;851;-62
2022/01/07 12:06:52;;;;;;;;;;;;;;;;;;5113598;28;1067;-62
2022/01/07 12:09:21;;;;;;;;;;;;;;;;;;5132020;28;818;-62
2022/01/07 12:11:55;;;;;;;;;;;;;;;;;;5131333;28;900;-62
2022/01/07 12:14:21;;;;;;;;;;;;;;;;;;5132207;28;971;-62
2022/01/07 12:16:49;;;;;;;;;;;;;;;;;;5131446;28;958;-62
2022/01/07 12:19:25;;;;;;;;;;;;;;;;;;5131776;27;1917;-62
2022/01/07 12:21:52;;;;;;;;;;;;;;;;;;5135292;27;887;-61
2022/01/07 12:24:20;;;;;;;;;;;;;;;;;;5135935;27;903;-61
2022/01/07 12:26:46;;;;;;;;;;;;;;;;;;5135711;27;870;-61
2022/01/07 12:29:19;;;;;;;;;;;;;;;;;;5135749;27;911;-61
2022/01/07 12:31:51;;;;;;;;;;;;;;;;;;5135623;27;880;-61
2022/01/07 12:34:24;;;;;;;;;;;;;;;;;;5135569;27;895;-61
2022/01/07 12:36:54;;;;;;;;;;;;;;;;;;5135171;27;1019;-61
2022/01/07 12:39:23;;;;;;;;;;;;;;;;;;5136211;27;1946;-62
2022/01/07 12:41:52;;;;;;;;;;;;;;;;;;5135905;27;805;-61
2022/01/07 12:44:17;;;;;;;;;;;;;;;;;;5101042;27;864;-61
2022/01/07 12:46:49;;;;;;;;;;;;;;;;;;5116990;27;738;-61
2022/01/07 12:49:15;;;;;;;;;;;;;;;;;;5135525;27;981;-61
2022/01/07 12:51:40;;;;;;;;;;;;;;;;;;5135044;27;1006;-62
2022/01/07 12:54:06;;;;;;;;;;;;;;;;;;5135580;27;923;-61
2022/01/07 12:56:32;;;;;;;;;;;;;;;;;;5134971;27;877;-62
2022/01/07 12:59:08;;;;;;;;;;;;;;;;;;5134926;27;1981;-62
2022/01/07 13:01:33;;;;;;;;;;;;;;;;;;5134619;27;765;-62
2022/01/07 13:04:06;;;;;;;;;;;;;;;;;;5135639;27;1053;-62
2022/01/07 13:06:36;;;;;;;;;;;;;;;;;;5134949;27;784;-62
2022/01/07 13:09:02;;;;;;;;;;;;;;;;;;5135188;27;1089;-62
2022/01/07 13:11:29;;;;;;;;;;;;;;;;;;5135144;27;998;-62
2022/01/07 13:14:05;;;;;;;;;;;;;;;;;;5134978;27;879;-62
2022/01/07 13:16:31;;;;;;;;;;;;;;;;;;5134444;27;863;-61
2022/01/07 13:19:06;;;;;;;;;;;;;;;;;;5134283;27;1972;-62
2022/01/07 13:21:32;;;;;;;;;;;;;;;;;;5134528;27;789;-62
2022/01/07 13:23:58;;;;;;;;;;;;;;;;;;5134704;27;1063;-61
2022/01/07 13:26:27;;;;;;;;;;;;;;;;;;5135103;27;815;-63
2022/01/07 13:28:53;;;;;;;;;;;;;;;;;;5133995;27;876;-62
2022/01/07 13:31:35;;;;;;;;;;;;;;;;;;5115689;27;762;-62
2022/01/07 13:34:01;;;;;;;;;;;;;;;;;;5133709;27;1155;-62
2022/01/07 13:36:45;;;;;;;;;;;;;;;;;;5116128;27;1649;-62
2022/01/07 13:39:12;;;;;;;;;;;;;;;;;;5134092;27;1961;-62
2022/01/07 13:41:56;;;;;;;;;;;;;;;;;;5115433;27;1307;-61
2022/01/07 13:44:21;;;;;;;;;;;;;;;;;;5134194;27;845;-61
2022/01/07 13:46:54;;;;;;;;;;;;;;;;;;5133838;27;987;-61
2022/01/07 13:49:20;;;;;;;;;;;;;;;;;;5134201;27;837;-61
2022/01/07 13:51:53;;;;;;;;;;;;;;;;;;5133457;27;868;-61
2022/01/07 13:54:20;;;;;;;;;;;;;;;;;;5115401;27;1958;-61
2022/01/07 13:56:58;;;;;;;;;;;;;;;;;;5133099;27;832;-62
2022/01/07 13:59:24;;;;;;;;;;;;;;;;;;5133689;27;1964;-61
2022/01/07 14:01:55;;;;;;;;;;;;;;;;;;5133241;27;820;-61
2022/01/07 14:04:37;;;;;;;;;;;;;;;;;;5132870;27;821;-61
2022/01/07 14:07:18;;;;;;;;;;;;;;;;;;5133527;27;895;-61
2022/01/07 14:09:58;;;;;;;;;;;;;;;;;;5133278;27;979;-61
2022/01/07 14:12:24;;;;;;;;;;;;;;;;;;5133533;27;913;-61
2022/01/07 14:14:50;;;;;;;;;;;;;;;;;;5132807;27;1194;-61
2022/01/07 14:17:15;;;;;;;;;;;;;;;;;;5133164;27;1076;-61
2022/01/07 14:19:59;;;;;;;;;;;;;;;;;;5133008;27;1898;-61
2022/01/07 14:22:25;;;;;;;;;;;;;;;;;;5133758;27;972;-61
2022/01/07 14:24:51;;;;;;;;;;;;;;;;;;5133436;27;946;-61
2022/01/07 14:27:23;;;;;;;;;;;;;;;;;;5133200;27;856;-61
2022/01/07 14:29:49;;;;;;;;;;;;;;;;;;5114834;27;801;-61
2022/01/07 14:32:14;;;;;;;;;;;;;;;;;;5133593;27;823;-61
2022/01/07 14:34:40;;;;;;;;;;;;;;;;;;5114447;27;907;-62
2022/01/07 14:37:05;;;;;;;;;;;;;;;;;;5114883;27;933;-61
2022/01/07 14:39:30;;;;;;;;;;;;;;;;;;5132829;27;1965;-61
2022/01/07 14:41:55;;;;;;;;;;;;;;;;;;5132733;27;780;-61
2022/01/07 14:44:21;;;;;;;;;;;;;;;;;;5132664;27;777;-61
2022/01/07 14:46:46;;;;;;;;;;;;;;;;;;5114546;27;840;-62
2022/01/07 14:49:12;;;;;;;;;;;;;;;;;;5133110;27;825;-61
2022/01/07 14:51:37;;;;;;;;;;;;;;;;;;5132658;27;832;-61
2022/01/07 14:54:02;;;;;;;;;;;;;;;;;;5132594;27;767;-61
2022/01/07 14:56:27;;;;;;;;;;;;;;;;;;5132789;27;883;-61
2022/01/07 14:58:53;;;;;;;;;;;;;;;;;;5132169;27;1965;-61
2022/01/07 15:01:19;;;;;;;;;;;;;;;;;;5096861;27;1291;-61
2022/01/07 15:03:44;;;;;;;;;;;;;;;;;;5132565;27;817;-61
2022/01/07 15:06:09;;;;;;;;;;;;;;;;;;5132503;27;899;-61
2022/01/07 15:08:35;;;;;;;;;;;;;;;;;;5114017;27;1150;-61
2022/01/07 15:11:00;;;;;;;;;;;;;;;;;;5132045;27;896;-61
2022/01/07 15:13:25;;;;;;;;;;;;;;;;;;5113915;27;657;-61
2022/01/07 15:18:22;;;;;;;;;;;;;;;;;;5130893;27;1968;-61
2022/01/07 15:20:48;;;;;;;;;;;;;;;;;;5131610;27;734;-61
2022/01/07 15:23:13;;;;;;;;;;;;;;;;;;5132186;27;828;-62
2022/01/07 15:25:39;;;;;;;;;;;;;;;;;;5131996;27;828;-61
2022/01/07 15:28:04;;;;;;;;;;;;;;;;;;5113098;28;1762;-62
2022/01/07 15:30:30;;;;;;;;;;;;;;;;;;5131808;27;833;-61
2022/01/07 15:32:55;;;;;;;;;;;;;;;;;;5131628;27;903;-62
2022/01/07 15:35:20;;;;;;;;;;;;;;;;;;5113853;28;813;-61
2022/01/07 15:37:46;;;;;;;;;;;;;;;;;;5130468;27;1955;-62
2022/01/07 15:40:12;;;;;;;;;;;;;;;;;;5131370;27;1095;-61
2022/01/07 15:42:38;;;;;;;;;;;;;;;;;;5130799;28;896;-62
2022/01/07 15:45:04;;;;;;;;;;;;;;;;;;5131436;28;832;-61
2022/01/07 15:47:30;;;;;;;;;;;;;;;;;;5132921;27;1154;-62
2022/01/07 15:49:55;;;;;;;;;;;;;;;;;;5131576;27;1127;-63
2022/01/07 15:52:23;;;;;;;;;;;;;;;;;;5131784;27;1120;-61
2022/01/07 15:54:49;;;;;;;;;;;;;;;;;;5116031;27;797;-61
2022/01/07 15:57:14;;;;;;;;;;;;;;;;;;5136491;27;887;-62
2022/01/07 15:59:39;;;;;;;;;;;;;;;;;;5136196;27;1910;-61
2022/01/07 16:02:04;;;;;;;;;;;;;;;;;;5137258;27;840;-61
2022/01/07 16:04:30;;;;;;;;;;;;;;;;;;5136272;27;914;-61
2022/01/07 16:06:55;;;;;;;;;;;;;;;;;;5136150;27;887;-61
2022/01/07 16:09:21;;;;;;;;;;;;;;;;;;5136649;27;844;-61
2022/01/07 16:11:47;;;;;;;;;;;;;;;;;;5117396;27;1234;-61
2022/01/07 16:14:12;;;;;;;;;;;;;;;;;;5136632;27;910;-61
2022/01/07 16:16:37;;;;;;;;;;;;;;;;;;5137001;27;863;-61
2022/01/07 16:19:04;;;;;;;;;;;;;;;;;;5117271;27;1969;-61
2022/01/07 16:21:30;;;;;;;;;;;;;;;;;;5136244;27;836;-60
2022/01/07 16:23:55;;;;;;;;;;;;;;;;;;5135934;27;875;-61
2022/01/07 16:26:20;;;;;;;;;;;;;;;;;;5136697;27;994;-61
2022/01/07 16:28:46;;;;;;;;;;;;;;;;;;5135803;27;868;-61
2022/01/07 16:31:12;;;;;;;;;;;;;;;;;;5117793;27;1358;-60
2022/01/07 16:33:37;;;;;;;;;;;;;;;;;;5135937;27;805;-61
2022/01/07 16:36:03;;;;;;;;;;;;;;;;;;5135608;27;1054;-61
2022/01/07 16:38:28;;;;;;;;;;;;;;;;;;5099653;27;1902;-61
2022/01/07 16:40:54;;;;;;;;;;;;;;;;;;5135712;27;800;-62
2022/01/07 16:43:20;;;;;;;;;;;;;;;;;;5136086;27;788;-61
2022/01/07 16:45:45;;;;;;;;;;;;;;;;;;5135568;27;820;-61
2022/01/07 16:48:12;;;;;;;;;;;;;;;;;;5134933;27;1282;-61
2022/01/07 16:50:37;;;;;;;;;;;;;;;;;;5135283;27;836;-60
2022/01/07 16:53:03;;;;;;;;;;;;;;;;;;5116679;27;848;-61
2022/01/07 16:55:28;;;;;;;;;;;;;;;;;;5135332;27;908;-61
2022/01/07 16:57:54;;;;;;;;;;;;;;;;;;5134664;27;1975;-60
2022/01/07 17:00:20;;;;;;;;;;;;;;;;;;5135199;27;773;-61
2022/01/07 17:02:45;;;;;;;;;;;;;;;;;;5135454;27;872;-61
2022/01/07 17:05:10;;;;;;;;;;;;;;;;;;5115274;27;863;-61
2022/01/07 17:07:36;;;;;;;;;;;;;;;;;;5135044;27;863;-61
2022/01/07 17:10:03;;;;;;;;;;;;;;;;;;5134557;27;958;-61
2022/01/07 17:12:28;;;;;;;;;;;;;;;;;;5135199;27;856;-61
2022/01/07 17:14:53;;;;;;;;;;;;;;;;;;5134718;27;847;-61
2022/01/07 17:17:19;;;;;;;;;;;;;;;;;;5135782;27;825;-61
2022/01/07 17:19:44;;;;;;;;;;;;;;;;;;5116141;27;1991;-61